createdAt,value
2022-11-21T00:00:00.089Z,46.25
2022-11-21T00:01:00.009Z,42.86
2022-11-21T00:02:00.064Z,46.57
2022-11-21T00:02:59.861Z,45.92
2022-11-21T00:03:59.882Z,46.41
2022-11-21T00:04:59.929Z,44.15
2022-11-21T00:05:59.820Z,42.70
2022-11-21T00:07:00.028Z,48.34
2022-11-21T00:08:00.058Z,47.21
2022-11-21T00:08:59.839Z,43.51
2022-11-21T00:09:59.799Z,44.63
2022-11-21T00:11:00.197Z,41.09
2022-11-21T00:11:59.846Z,43.18
2022-11-21T00:12:59.787Z,45.44
2022-11-21T00:13:59.766Z,42.70
2022-11-21T00:14:59.779Z,45.28
2022-11-21T00:15:59.866Z,45.76
2022-11-21T00:16:59.876Z,46.25
2022-11-21T00:17:59.756Z,45.92
2022-11-21T00:19:00.094Z,43.67
2022-11-21T00:20:00.543Z,44.31
2022-11-21T00:20:59.832Z,41.89
2022-11-21T00:21:59.894Z,44.96
2022-11-21T00:22:59.824Z,43.83
2022-11-21T00:23:59.817Z,44.15
2022-11-21T00:24:59.732Z,45.28
2022-11-21T00:25:59.824Z,48.66
2022-11-21T00:27:01.356Z,44.15
2022-11-21T00:27:59.752Z,46.41
2022-11-21T00:28:59.692Z,44.15
2022-11-21T00:29:59.751Z,42.38
2022-11-21T00:30:59.758Z,45.76
2022-11-21T00:31:59.821Z,43.34
2022-11-21T00:32:59.866Z,44.15
2022-11-21T00:33:59.904Z,43.83
2022-11-21T00:34:59.947Z,43.67
2022-11-21T00:35:59.951Z,42.70
2022-11-21T00:36:59.959Z,42.38
2022-11-21T00:37:59.649Z,46.41
2022-11-21T00:38:59.669Z,54.30
2022-11-21T00:39:59.603Z,42.70
2022-11-21T00:40:59.646Z,43.34
2022-11-21T00:41:59.688Z,44.63
2022-11-21T00:42:59.742Z,41.73
2022-11-21T00:43:59.787Z,48.18
2022-11-21T00:44:59.588Z,49.95
2022-11-21T00:45:59.795Z,42.86
2022-11-21T00:46:59.591Z,59.62
2022-11-21T00:47:59.593Z,42.86
2022-11-21T00:48:59.896Z,51.24
2022-11-21T00:49:59.677Z,44.96
2022-11-21T00:50:59.846Z,42.70
2022-11-21T00:51:59.734Z,43.34
2022-11-21T00:53:00.165Z,43.99
2022-11-21T00:53:59.515Z,41.25
2022-11-21T00:54:59.523Z,43.34
2022-11-21T00:55:59.634Z,40.93
2022-11-21T00:56:59.741Z,42.54
2022-11-21T00:57:59.637Z,42.86
2022-11-21T00:58:59.933Z,41.41
2022-11-21T00:59:59.662Z,42.22
2022-11-21T01:01:00.291Z,44.96
2022-11-21T01:01:59.471Z,42.54
2022-11-21T01:02:59.581Z,44.96
2022-11-21T01:03:59.601Z,41.73
2022-11-21T01:05:00.292Z,43.67
2022-11-21T01:05:59.559Z,41.89
2022-11-21T01:06:59.533Z,42.86
2022-11-21T01:07:59.491Z,42.86
2022-11-21T01:09:00.370Z,42.70
2022-11-21T01:10:00.316Z,42.22
2022-11-21T01:10:59.514Z,42.86
2022-11-21T01:11:59.418Z,45.44
2022-11-21T01:12:59.734Z,43.99
2022-11-21T01:13:59.428Z,43.51
2022-11-21T01:14:59.608Z,45.44
2022-11-21T01:16:00.127Z,41.41
2022-11-21T01:17:00.408Z,42.54
2022-11-21T01:17:59.447Z,41.41
2022-11-21T01:18:59.382Z,42.38
2022-11-21T01:19:59.427Z,57.85
2022-11-21T01:20:59.478Z,46.08
2022-11-21T01:21:59.523Z,45.44
2022-11-21T01:22:59.577Z,42.06
2022-11-21T01:23:59.384Z,43.83
2022-11-21T01:24:59.331Z,43.02
2022-11-21T01:25:59.324Z,45.28
2022-11-21T01:26:59.325Z,42.38
2022-11-21T01:27:59.342Z,53.01
2022-11-21T01:28:59.311Z,41.73
2022-11-21T01:29:59.338Z,45.44
2022-11-21T01:30:59.363Z,43.02
2022-11-21T01:31:59.272Z,41.25
2022-11-21T01:32:59.343Z,42.54
2022-11-21T01:33:59.305Z,40.61
2022-11-21T01:34:59.296Z,43.99
2022-11-21T01:35:59.301Z,41.25
2022-11-21T01:36:59.311Z,45.12
2022-11-21T01:37:59.269Z,42.22
2022-11-21T01:38:59.368Z,41.41
2022-11-21T01:40:00.699Z,41.57
2022-11-21T01:40:59.229Z,43.51
2022-11-21T01:41:59.209Z,44.96
2022-11-21T01:42:59.308Z,41.73
2022-11-21T01:43:59.420Z,43.02
2022-11-21T01:44:59.421Z,40.77
2022-11-21T01:45:59.278Z,41.41
2022-11-21T01:46:59.447Z,41.09
2022-11-21T01:47:59.227Z,41.09
2022-11-21T01:48:59.346Z,40.61
2022-11-21T01:49:59.216Z,40.93
2022-11-21T01:50:59.413Z,39.80
2022-11-21T01:51:59.528Z,40.44
2022-11-21T01:52:59.158Z,41.25
2022-11-21T01:53:59.195Z,42.22
2022-11-21T01:54:59.226Z,41.89
2022-11-21T01:55:59.124Z,40.44
2022-11-21T01:56:59.134Z,41.89
2022-11-21T01:57:59.163Z,43.99
2022-11-21T01:58:59.199Z,44.15
2022-11-21T01:59:59.117Z,44.96
2022-11-21T02:00:59.156Z,41.09
2022-11-21T02:01:59.122Z,42.54
2022-11-21T02:02:59.156Z,41.89
2022-11-21T02:03:59.443Z,40.93
2022-11-21T02:04:59.492Z,47.05
2022-11-21T02:05:59.142Z,42.38
2022-11-21T02:06:59.637Z,44.96
2022-11-21T02:07:59.112Z,42.86
2022-11-21T02:08:59.060Z,43.67
2022-11-21T02:09:59.049Z,42.86
2022-11-21T02:12:25.117Z,44.96
2022-11-21T02:13:25.316Z,40.44
2022-11-21T02:14:25.421Z,44.47
2022-11-21T02:15:25.057Z,42.54
2022-11-21T02:16:25.166Z,41.73
2022-11-21T02:17:25.453Z,41.41
2022-11-21T02:18:24.994Z,44.96
2022-11-21T02:19:24.970Z,46.73
2022-11-21T02:20:25.024Z,44.63
2022-11-21T02:21:24.953Z,56.88
2022-11-21T02:22:24.951Z,56.72
2022-11-21T02:23:24.946Z,56.72
2022-11-21T02:24:25.157Z,58.81
2022-11-21T02:25:24.976Z,56.88
2022-11-21T02:26:24.980Z,56.88
2022-11-21T02:27:24.991Z,56.88
2022-11-21T02:28:25.005Z,56.72
2022-11-21T02:29:25.021Z,56.88
2022-11-21T02:30:25.041Z,58.81
2022-11-21T02:31:24.910Z,58.81
2022-11-21T02:32:24.859Z,58.81
2022-11-21T02:33:24.926Z,56.88
2022-11-21T02:34:25.087Z,56.72
2022-11-21T02:35:24.930Z,58.33
2022-11-21T02:36:24.937Z,58.81
2022-11-21T02:37:25.046Z,58.81
2022-11-21T02:38:25.063Z,42.22
2022-11-21T02:39:24.817Z,44.47
2022-11-21T02:40:24.797Z,58.81
2022-11-21T02:41:24.796Z,58.81
2022-11-21T02:42:24.787Z,58.81
2022-11-21T02:43:25.044Z,58.97
2022-11-21T02:44:25.016Z,43.51
2022-11-21T02:45:24.823Z,43.51
2022-11-21T02:46:24.764Z,41.25
2022-11-21T02:47:24.754Z,42.70
2022-11-21T02:48:24.764Z,42.54
2022-11-21T02:49:24.822Z,45.44
2022-11-21T02:50:24.753Z,43.51
2022-11-21T02:51:24.746Z,40.93
2022-11-21T02:52:24.842Z,43.02
2022-11-21T02:53:24.779Z,41.41
2022-11-21T02:54:24.988Z,41.25
2022-11-21T02:55:24.732Z,45.28
2022-11-21T02:56:26.163Z,41.25
2022-11-21T02:57:24.701Z,46.25
2022-11-21T02:58:24.780Z,45.44
2022-11-21T02:59:24.691Z,41.73
2022-11-21T03:00:24.820Z,44.63
2022-11-21T03:01:24.825Z,45.28
2022-11-21T03:02:24.729Z,43.83
2022-11-21T03:03:24.696Z,43.99
2022-11-21T03:04:24.759Z,44.47
2022-11-21T03:05:24.649Z,44.63
2022-11-21T03:06:24.651Z,41.89
2022-11-21T03:07:24.718Z,41.57
2022-11-21T03:08:24.746Z,43.51
2022-11-21T03:09:24.779Z,42.22
2022-11-21T03:10:24.637Z,42.70
2022-11-21T03:11:24.656Z,41.41
2022-11-21T03:12:24.663Z,46.08
2022-11-21T03:13:24.596Z,41.25
2022-11-21T03:14:24.736Z,43.51
2022-11-21T03:15:24.586Z,40.93
2022-11-21T03:16:24.576Z,47.05
2022-11-21T03:17:24.766Z,45.44
2022-11-21T03:18:24.615Z,44.15
2022-11-21T03:19:26.032Z,40.77
2022-11-21T03:20:24.564Z,43.51
2022-11-21T03:21:24.936Z,45.92
2022-11-21T03:22:24.983Z,43.51
2022-11-21T03:23:24.545Z,43.51
2022-11-21T03:24:24.657Z,53.50
2022-11-21T03:25:24.853Z,40.93
2022-11-21T03:26:24.635Z,45.28
2022-11-21T03:27:24.780Z,41.09
2022-11-21T03:28:25.062Z,43.34
2022-11-21T03:29:25.083Z,46.25
2022-11-21T03:30:24.522Z,47.37
2022-11-21T03:31:24.511Z,43.34
2022-11-21T03:32:25.112Z,44.31
2022-11-21T03:33:25.130Z,42.06
2022-11-21T03:34:24.685Z,41.09
2022-11-21T03:35:24.739Z,50.11
2022-11-21T03:36:25.168Z,41.57
2022-11-21T03:37:24.456Z,41.73
2022-11-21T03:38:24.559Z,41.57
2022-11-21T03:39:24.459Z,41.57
2022-11-21T03:40:25.217Z,41.57
2022-11-21T03:41:25.142Z,41.09
2022-11-21T03:42:24.447Z,44.47
2022-11-21T03:43:24.796Z,40.93
2022-11-21T03:44:24.554Z,41.25
2022-11-21T03:45:25.296Z,40.93
2022-11-21T03:46:24.789Z,41.73
2022-11-21T03:47:25.156Z,44.31
2022-11-21T03:48:25.004Z,42.38
2022-11-21T03:49:24.414Z,45.60
2022-11-21T03:50:24.415Z,43.51
2022-11-21T03:51:24.503Z,45.12
2022-11-21T03:52:24.373Z,40.93
2022-11-21T03:53:24.413Z,41.73
2022-11-21T03:54:24.366Z,42.38
2022-11-21T03:55:24.534Z,43.02
2022-11-21T03:56:24.459Z,43.99
2022-11-21T03:57:24.344Z,42.38
2022-11-21T03:58:24.662Z,44.96
2022-11-21T03:59:24.363Z,44.31
2022-11-21T04:00:24.663Z,41.73
2022-11-21T04:01:24.375Z,40.93
2022-11-21T04:02:24.550Z,43.02
2022-11-21T04:03:24.373Z,42.22
2022-11-21T04:04:24.400Z,44.15
2022-11-21T04:05:24.294Z,46.08
2022-11-21T04:06:24.330Z,41.89
2022-11-21T04:07:24.439Z,43.02
2022-11-21T04:08:24.277Z,41.73
2022-11-21T04:09:24.419Z,42.86
2022-11-21T04:10:24.268Z,41.73
2022-11-21T04:11:24.307Z,46.08
2022-11-21T04:12:24.357Z,42.06
2022-11-21T04:13:24.661Z,43.02
2022-11-21T04:14:24.267Z,41.89
2022-11-21T04:15:24.237Z,41.57
2022-11-21T04:16:24.788Z,44.96
2022-11-21T04:17:24.325Z,42.38
2022-11-21T04:18:24.646Z,46.57
2022-11-21T04:19:24.347Z,45.60
2022-11-21T04:20:24.964Z,42.70
2022-11-21T04:21:24.820Z,43.02
2022-11-21T04:22:24.323Z,43.67
2022-11-21T04:23:24.473Z,41.57
2022-11-21T04:24:24.605Z,46.41
2022-11-21T04:25:24.163Z,41.89
2022-11-21T04:26:24.175Z,46.25
2022-11-21T04:27:24.182Z,44.47
2022-11-21T04:28:24.194Z,45.60
2022-11-21T04:29:24.303Z,43.83
2022-11-21T04:30:24.241Z,43.67
2022-11-21T04:31:24.223Z,42.54
2022-11-21T04:32:24.320Z,48.18
2022-11-21T04:33:24.128Z,46.41
2022-11-21T04:34:24.439Z,42.86
2022-11-21T04:35:24.439Z,46.25
2022-11-21T04:36:24.617Z,41.57
2022-11-21T04:37:24.576Z,47.05
2022-11-21T04:38:24.578Z,44.96
2022-11-21T04:39:24.311Z,44.15
2022-11-21T04:40:24.178Z,42.06
2022-11-21T04:41:24.178Z,46.08
2022-11-21T04:42:24.804Z,49.79
2022-11-21T04:43:24.103Z,41.41
2022-11-21T04:44:24.115Z,44.31
2022-11-21T04:45:24.066Z,49.31
2022-11-21T04:46:24.046Z,42.86
2022-11-21T04:47:24.020Z,43.83
2022-11-21T04:48:24.644Z,42.70
2022-11-21T04:49:24.034Z,44.63
2022-11-21T04:50:24.015Z,45.12
2022-11-21T04:51:24.008Z,43.34
2022-11-21T04:52:24.024Z,44.47
2022-11-21T04:53:24.037Z,43.99
2022-11-21T04:54:24.043Z,45.44
2022-11-21T04:55:24.054Z,45.60
2022-11-21T04:56:24.076Z,41.89
2022-11-21T04:57:24.083Z,43.34
2022-11-21T04:58:23.941Z,43.34
2022-11-21T04:59:23.936Z,43.51
2022-11-21T05:00:24.671Z,43.51
2022-11-21T05:01:23.955Z,46.89
2022-11-21T05:02:23.962Z,50.92
2022-11-21T05:03:23.992Z,44.79
2022-11-21T05:04:23.954Z,46.73
2022-11-21T05:05:23.967Z,45.76
2022-11-21T05:06:23.898Z,46.41
2022-11-21T05:07:23.940Z,44.31
2022-11-21T05:08:23.979Z,45.44
2022-11-21T05:09:24.020Z,45.60
2022-11-21T05:10:24.066Z,44.15
2022-11-21T05:11:24.028Z,45.44
2022-11-21T05:12:24.148Z,46.89
2022-11-21T05:13:24.211Z,45.60
2022-11-21T05:14:23.834Z,46.41
2022-11-21T05:15:25.016Z,43.83
2022-11-21T05:16:23.845Z,44.47
2022-11-21T05:17:23.855Z,49.47
2022-11-21T05:18:23.838Z,45.12
2022-11-21T05:19:23.906Z,44.47
2022-11-21T05:20:23.856Z,44.63
2022-11-21T05:21:23.935Z,53.17
2022-11-21T05:22:23.830Z,46.73
2022-11-21T05:23:23.785Z,48.98
2022-11-21T05:24:23.885Z,46.73
2022-11-21T05:25:23.892Z,61.87
2022-11-21T05:26:23.892Z,50.92
2022-11-21T05:27:23.744Z,45.92
2022-11-21T05:28:23.752Z,47.21
2022-11-21T05:29:27.920Z,44.96
2022-11-21T05:30:23.786Z,50.27
2022-11-21T05:31:23.793Z,47.86
2022-11-21T05:32:23.722Z,48.82
2022-11-21T05:33:23.818Z,48.50
2022-11-21T05:34:23.842Z,47.70
2022-11-21T05:35:23.850Z,44.79
2022-11-21T05:36:23.751Z,44.96
2022-11-21T05:37:23.869Z,48.66
2022-11-21T05:38:23.694Z,49.31
2022-11-21T05:39:23.898Z,45.92
2022-11-21T05:40:23.909Z,46.41
2022-11-21T05:41:23.828Z,44.96
2022-11-21T05:42:23.844Z,44.79
2022-11-21T05:43:23.949Z,48.34
2022-11-21T05:44:23.807Z,50.27
2022-11-21T05:45:23.655Z,47.21
2022-11-21T05:46:23.699Z,48.66
2022-11-21T05:47:23.760Z,47.37
2022-11-21T05:48:23.807Z,47.53
2022-11-21T05:49:23.778Z,46.41
2022-11-21T05:50:23.876Z,44.96
2022-11-21T05:51:23.926Z,45.92
2022-11-21T05:52:23.975Z,48.66
2022-11-21T05:53:24.027Z,48.02
2022-11-21T05:54:24.095Z,47.05
2022-11-21T05:55:24.108Z,45.12
2022-11-21T05:56:24.126Z,48.34
2022-11-21T05:57:23.692Z,47.37
2022-11-21T05:58:23.564Z,48.34
2022-11-21T05:59:23.590Z,47.37
2022-11-21T06:00:23.643Z,48.34
2022-11-21T06:01:23.642Z,48.98
2022-11-21T06:02:23.532Z,47.37
2022-11-21T06:03:23.559Z,48.98
2022-11-21T06:04:23.855Z,48.18
2022-11-21T06:05:23.852Z,47.70
2022-11-21T06:06:25.091Z,46.08
2022-11-21T06:07:24.023Z,47.05
2022-11-21T06:08:23.551Z,47.70
2022-11-21T06:09:23.542Z,45.92
2022-11-21T06:10:23.940Z,47.05
2022-11-21T06:11:24.141Z,49.79
2022-11-21T06:12:25.658Z,49.15
2022-11-21T06:13:24.229Z,48.18
2022-11-21T06:14:24.279Z,48.18
2022-11-21T06:15:23.669Z,48.66
2022-11-21T06:16:23.595Z,48.34
2022-11-21T06:17:23.750Z,46.89
2022-11-21T06:18:24.409Z,47.05
2022-11-21T06:19:24.407Z,47.37
2022-11-21T06:20:23.429Z,54.30
2022-11-21T06:21:23.437Z,48.18
2022-11-21T06:22:23.486Z,48.18
2022-11-21T06:23:23.437Z,47.53
2022-11-21T06:24:24.426Z,47.53
2022-11-21T06:25:23.576Z,56.88
2022-11-21T06:26:23.671Z,51.72
2022-11-21T06:27:23.695Z,54.95
2022-11-21T06:28:23.534Z,50.92
2022-11-21T06:29:23.696Z,58.01
2022-11-21T06:30:23.744Z,53.50
2022-11-21T06:31:23.784Z,54.14
2022-11-21T06:32:23.436Z,50.11
2022-11-21T06:33:23.333Z,48.66
2022-11-21T06:34:23.342Z,50.43
2022-11-21T06:35:23.364Z,47.86
2022-11-21T06:36:23.332Z,51.24
2022-11-21T06:37:23.302Z,49.31
2022-11-21T06:38:23.312Z,49.15
2022-11-21T06:39:23.311Z,49.63
2022-11-21T06:40:23.341Z,53.01
2022-11-21T06:41:23.291Z,48.02
2022-11-21T06:42:23.281Z,48.18
2022-11-21T06:43:23.352Z,51.08
2022-11-21T06:44:23.380Z,50.92
2022-11-21T06:45:23.329Z,52.69
2022-11-21T06:46:23.282Z,49.95
2022-11-21T06:47:23.418Z,49.79
2022-11-21T06:48:23.428Z,50.11
2022-11-21T06:49:23.240Z,51.56
2022-11-21T06:50:23.234Z,55.27
2022-11-21T06:51:23.467Z,50.60
2022-11-21T06:52:23.476Z,60.26
2022-11-21T06:53:23.488Z,56.24
2022-11-21T06:54:23.238Z,50.11
2022-11-21T06:55:23.250Z,49.15
2022-11-21T06:56:23.187Z,49.15
2022-11-21T06:57:23.206Z,47.37
2022-11-21T06:58:23.287Z,49.31
2022-11-21T06:59:23.295Z,48.18
2022-11-21T07:00:23.166Z,47.37
2022-11-21T07:01:23.235Z,48.82
2022-11-21T07:02:23.246Z,64.13
2022-11-21T07:03:23.165Z,51.24
2022-11-21T07:04:23.182Z,49.63
2022-11-21T07:05:23.387Z,48.18
2022-11-21T07:06:23.423Z,50.11
2022-11-21T07:07:23.392Z,47.70
2022-11-21T07:08:23.123Z,50.60
2022-11-21T07:09:33.204Z,50.11
2022-11-21T07:10:23.102Z,48.34
2022-11-21T07:11:25.020Z,49.47
2022-11-21T07:12:23.551Z,57.36
2022-11-21T07:13:23.782Z,51.72
2022-11-21T07:14:23.160Z,47.70
2022-11-21T07:15:23.781Z,50.11
2022-11-21T07:16:23.069Z,48.50
2022-11-21T07:17:23.078Z,47.53
2022-11-21T07:18:23.088Z,47.86
2022-11-21T07:19:23.060Z,59.62
2022-11-21T07:20:23.039Z,47.37
2022-11-21T07:21:23.020Z,47.37
2022-11-21T07:22:23.209Z,47.21
2022-11-21T07:23:23.068Z,47.05
2022-11-21T07:24:23.079Z,46.73
2022-11-21T07:25:23.049Z,51.40
2022-11-21T07:26:23.332Z,48.98
2022-11-21T07:27:23.517Z,47.53
2022-11-21T07:28:23.128Z,49.63
2022-11-21T07:29:23.055Z,55.11
2022-11-21T07:30:23.058Z,48.34
2022-11-21T07:31:23.165Z,47.70
2022-11-21T07:32:23.278Z,46.25
2022-11-21T07:33:23.205Z,50.76
2022-11-21T07:34:23.242Z,47.37
2022-11-21T07:35:23.225Z,50.43
2022-11-21T07:36:23.068Z,47.37
2022-11-21T07:37:22.934Z,52.85
2022-11-21T07:38:22.985Z,48.82
2022-11-21T07:39:22.955Z,51.08
2022-11-21T07:40:23.094Z,47.53
2022-11-21T07:41:24.394Z,48.18
2022-11-21T07:42:23.192Z,47.86
2022-11-21T07:43:22.918Z,50.43
2022-11-21T07:44:23.262Z,46.41
2022-11-21T07:45:22.984Z,51.88
2022-11-21T07:46:23.191Z,45.76
2022-11-21T07:47:23.161Z,47.86
2022-11-21T07:48:22.902Z,46.89
2022-11-21T07:49:22.869Z,49.31
2022-11-21T07:50:22.930Z,49.95
2022-11-21T07:51:22.877Z,47.53
2022-11-21T07:52:23.159Z,48.18
2022-11-21T07:53:22.961Z,52.85
2022-11-21T07:54:23.122Z,49.15
2022-11-21T07:55:22.819Z,49.79
2022-11-21T07:56:22.849Z,53.82
2022-11-21T07:57:22.860Z,49.95
2022-11-21T07:58:22.898Z,47.37
2022-11-21T07:59:22.946Z,47.86
2022-11-21T08:00:22.997Z,49.47
2022-11-21T08:01:23.122Z,51.72
2022-11-21T08:02:23.066Z,49.15
2022-11-21T08:03:23.118Z,47.53
2022-11-21T08:04:22.926Z,47.86
2022-11-21T08:05:22.997Z,48.18
2022-11-21T08:06:22.745Z,49.15
2022-11-21T08:07:23.116Z,49.31
2022-11-21T08:08:23.135Z,47.70
2022-11-21T08:09:22.726Z,52.69
2022-11-21T08:10:22.742Z,47.21
2022-11-21T08:12:48.688Z,48.98
2022-11-21T08:13:48.729Z,48.18
2022-11-21T08:14:48.748Z,57.20
2022-11-21T08:15:48.764Z,58.01
2022-11-21T08:16:48.757Z,50.60
2022-11-21T08:17:48.798Z,47.70
2022-11-21T08:18:48.798Z,48.82
2022-11-21T08:19:48.691Z,47.86
2022-11-21T08:20:48.708Z,51.72
2022-11-21T08:21:48.846Z,48.02
2022-11-21T08:22:48.858Z,48.66
2022-11-21T08:23:48.876Z,49.31
2022-11-21T08:24:48.598Z,52.05
2022-11-21T08:25:48.898Z,54.62
2022-11-21T08:26:48.795Z,48.66
2022-11-21T08:27:48.887Z,49.63
2022-11-21T08:28:48.865Z,51.24
2022-11-21T08:29:48.947Z,49.15
2022-11-21T08:30:48.558Z,51.88
2022-11-21T08:31:48.566Z,50.27
2022-11-21T08:32:48.566Z,50.11
2022-11-21T08:33:48.565Z,48.66
2022-11-21T08:34:48.565Z,50.76
2022-11-21T08:35:48.523Z,52.69
2022-11-21T08:36:48.677Z,50.43
2022-11-21T08:37:48.576Z,50.76
2022-11-21T08:38:48.787Z,47.86
2022-11-21T08:39:48.501Z,48.34
2022-11-21T08:40:48.492Z,48.82
2022-11-21T08:41:48.916Z,50.43
2022-11-21T08:42:48.473Z,51.24
2022-11-21T08:43:48.495Z,57.69
2022-11-21T08:44:48.953Z,57.20
2022-11-21T08:45:48.460Z,60.26
2022-11-21T08:46:48.449Z,48.66
2022-11-21T08:47:48.457Z,50.60
2022-11-21T08:48:52.349Z,48.66
2022-11-21T08:49:48.436Z,48.34
2022-11-21T08:50:48.416Z,48.18
2022-11-21T08:51:48.419Z,49.63
2022-11-21T08:52:48.408Z,49.47
2022-11-21T08:53:48.418Z,48.66
2022-11-21T08:54:48.398Z,46.89
2022-11-21T08:55:48.389Z,48.98
2022-11-21T08:56:48.412Z,52.21
2022-11-21T08:57:48.394Z,54.30
2022-11-21T08:58:48.448Z,48.50
2022-11-21T08:59:48.667Z,49.63
2022-11-21T09:00:48.986Z,46.89
2022-11-21T09:01:49.199Z,49.15
2022-11-21T09:02:49.046Z,50.43
2022-11-21T09:03:48.544Z,46.89
2022-11-21T09:04:49.189Z,48.02
2022-11-21T09:05:48.979Z,48.66
2022-11-21T09:06:48.797Z,47.37
2022-11-21T09:07:49.196Z,48.98
2022-11-21T09:08:49.145Z,50.11
2022-11-21T09:09:49.303Z,52.21
2022-11-21T09:10:48.304Z,53.98
2022-11-21T09:11:48.462Z,48.66
2022-11-21T09:12:49.283Z,46.89
2022-11-21T09:13:49.175Z,48.98
2022-11-21T09:14:49.509Z,47.53
2022-11-21T09:15:49.021Z,49.79
2022-11-21T09:16:49.140Z,48.18
2022-11-21T09:17:48.270Z,47.70
2022-11-21T09:18:48.433Z,48.66
2022-11-21T09:19:48.581Z,49.47
2022-11-21T09:20:48.293Z,48.50
2022-11-21T09:21:49.171Z,47.70
2022-11-21T09:22:48.789Z,49.95
2022-11-21T09:23:48.353Z,47.70
2022-11-21T09:24:49.029Z,49.15
2022-11-21T09:25:48.268Z,49.31
2022-11-21T09:26:48.246Z,47.70
2022-11-21T09:27:48.295Z,46.89
2022-11-21T09:28:48.335Z,51.88
2022-11-21T09:29:53.857Z,46.89
2022-11-21T09:30:48.189Z,48.66
2022-11-21T09:31:48.228Z,49.63
2022-11-21T09:32:48.278Z,56.88
2022-11-21T09:33:53.555Z,46.89
2022-11-21T09:34:48.363Z,47.53
2022-11-21T09:35:48.408Z,48.66
2022-11-21T09:36:48.263Z,49.63
2022-11-21T09:37:48.493Z,48.18
2022-11-21T09:38:48.154Z,46.41
2022-11-21T09:39:48.987Z,49.31
2022-11-21T09:40:48.167Z,48.02
2022-11-21T09:41:48.213Z,48.18
2022-11-21T09:42:48.104Z,48.02
2022-11-21T09:43:53.052Z,46.89
2022-11-21T09:44:48.800Z,48.34
2022-11-21T09:45:48.252Z,49.63
2022-11-21T09:46:48.352Z,48.66
2022-11-21T09:47:48.926Z,50.60
2022-11-21T09:48:48.891Z,50.92
2022-11-21T09:49:48.461Z,51.24
2022-11-21T09:50:53.643Z,47.70
2022-11-21T09:51:49.011Z,49.63
2022-11-21T09:52:49.021Z,47.70
2022-11-21T09:53:49.649Z,48.98
2022-11-21T09:54:48.220Z,50.27
2022-11-21T09:55:48.320Z,46.89
2022-11-21T09:56:49.159Z,52.05
2022-11-21T09:57:49.043Z,47.53
2022-11-21T09:58:48.663Z,51.88
2022-11-21T09:59:48.311Z,48.50
2022-11-21T10:00:48.038Z,46.89
2022-11-21T10:01:47.989Z,47.70
2022-11-21T10:02:48.008Z,49.63
2022-11-21T10:03:48.027Z,47.37
2022-11-21T10:04:48.039Z,48.50
2022-11-21T10:05:48.129Z,48.02
2022-11-21T10:06:47.946Z,47.05
2022-11-21T10:07:48.080Z,53.66
2022-11-21T10:08:48.153Z,57.36
2022-11-21T10:09:48.334Z,54.30
2022-11-21T10:10:48.093Z,54.79
2022-11-21T10:11:48.148Z,49.15
2022-11-21T10:12:48.115Z,45.92
2022-11-21T10:13:47.975Z,49.63
2022-11-21T10:14:48.091Z,49.79
2022-11-21T10:15:47.916Z,49.15
2022-11-21T10:16:48.064Z,48.50
2022-11-21T10:17:48.290Z,49.63
2022-11-21T10:18:49.533Z,50.27
2022-11-21T10:19:48.205Z,60.59
2022-11-21T10:20:48.124Z,49.31
2022-11-21T10:21:48.287Z,48.34
2022-11-21T10:22:47.840Z,48.66
2022-11-21T10:23:48.253Z,46.89
2022-11-21T10:24:48.231Z,48.50
2022-11-21T10:25:47.881Z,46.41
2022-11-21T10:26:47.892Z,50.27
2022-11-21T10:27:47.872Z,46.89
2022-11-21T10:28:47.803Z,46.57
2022-11-21T10:29:47.915Z,55.27
2022-11-21T10:30:47.882Z,50.92
2022-11-21T10:31:47.887Z,49.47
2022-11-21T10:32:47.761Z,50.11
2022-11-21T10:33:47.759Z,48.34
2022-11-21T10:34:47.740Z,48.18
2022-11-21T10:35:47.758Z,48.34
2022-11-21T10:36:47.731Z,48.18
2022-11-21T10:37:47.727Z,48.34
2022-11-21T10:38:47.778Z,48.82
2022-11-21T10:39:47.738Z,50.43
2022-11-21T10:40:47.741Z,48.34
2022-11-21T10:41:47.700Z,47.70
2022-11-21T10:42:48.623Z,48.66
2022-11-21T10:43:47.865Z,49.31
2022-11-21T10:44:47.884Z,48.50
2022-11-21T10:45:47.886Z,48.02
2022-11-21T10:46:47.897Z,49.95
2022-11-21T10:47:47.921Z,48.82
2022-11-21T10:48:47.927Z,47.37
2022-11-21T10:49:47.936Z,48.02
2022-11-21T10:50:47.955Z,48.66
2022-11-21T10:51:47.965Z,48.18
2022-11-21T10:52:48.138Z,47.05
2022-11-21T10:53:47.995Z,47.86
2022-11-21T10:54:48.014Z,47.21
2022-11-21T10:55:48.016Z,50.11
2022-11-21T10:56:48.060Z,47.70
2022-11-21T10:57:47.675Z,49.63
2022-11-21T10:58:48.623Z,49.47
2022-11-21T10:59:47.673Z,57.52
2022-11-21T11:00:47.731Z,60.75
2022-11-21T11:01:48.063Z,53.01
2022-11-21T11:02:47.741Z,50.76
2022-11-21T11:04:07.053Z,48.34
2022-11-21T11:04:52.317Z,65.58
2022-11-21T11:05:47.993Z,52.69
2022-11-21T11:06:48.152Z,48.66
2022-11-21T11:07:48.225Z,48.82
2022-11-21T11:08:47.520Z,54.14
2022-11-21T11:09:47.528Z,52.53
2022-11-21T11:10:47.520Z,53.98
2022-11-21T11:11:48.270Z,52.21
2022-11-21T11:12:47.998Z,51.24
2022-11-21T11:13:49.466Z,50.76
2022-11-21T11:14:47.547Z,49.15
2022-11-21T11:15:47.558Z,62.52
2022-11-21T11:16:47.567Z,48.98
2022-11-21T11:17:48.094Z,50.76
2022-11-21T11:18:47.538Z,50.43
2022-11-21T11:19:47.913Z,48.50
2022-11-21T11:20:47.637Z,51.72
2022-11-21T11:21:47.692Z,49.47
2022-11-21T11:22:48.121Z,47.86
2022-11-21T11:23:47.441Z,52.69
2022-11-21T11:24:47.436Z,47.70
2022-11-21T11:25:47.903Z,47.86
2022-11-21T11:26:48.475Z,49.47
2022-11-21T11:27:47.435Z,54.79
2022-11-21T11:28:47.904Z,66.55
2022-11-21T11:29:47.445Z,53.17
2022-11-21T11:30:47.574Z,53.17
2022-11-21T11:31:47.766Z,51.24
2022-11-21T11:32:48.068Z,51.72
2022-11-21T11:33:47.866Z,51.72
2022-11-21T11:34:47.904Z,48.02
2022-11-21T11:35:47.464Z,48.18
2022-11-21T11:36:47.653Z,46.57
2022-11-21T11:37:47.904Z,50.11
2022-11-21T11:38:48.071Z,49.79
2022-11-21T11:39:48.093Z,48.34
2022-11-21T11:40:47.322Z,50.11
2022-11-21T11:41:47.311Z,48.66
2022-11-21T11:42:47.337Z,49.95
2022-11-21T11:43:47.319Z,58.49
2022-11-21T11:44:47.291Z,52.53
2022-11-21T11:45:47.356Z,50.11
2022-11-21T11:46:47.553Z,48.82
2022-11-21T11:47:51.992Z,48.50
2022-11-21T11:49:11.482Z,49.31
2022-11-21T11:49:48.783Z,53.66
2022-11-21T11:50:47.270Z,53.66
2022-11-21T11:51:47.317Z,59.30
2022-11-21T11:52:47.257Z,67.35
2022-11-21T11:53:48.216Z,55.27
2022-11-21T11:54:47.239Z,48.02
2022-11-21T11:55:47.248Z,50.27
2022-11-21T11:56:47.440Z,50.60
2022-11-21T11:57:47.289Z,48.50
2022-11-21T11:58:47.315Z,49.95
2022-11-21T11:59:47.348Z,48.18
2022-11-21T12:00:47.437Z,47.70
2022-11-21T12:01:48.609Z,48.50
2022-11-21T12:02:47.277Z,49.47
2022-11-21T12:03:47.489Z,47.86
2022-11-21T12:04:47.516Z,48.66
2022-11-21T12:05:47.147Z,51.08
2022-11-21T12:08:39.612Z,51.40
2022-11-21T12:08:47.774Z,48.34
2022-11-21T12:09:47.128Z,48.34
2022-11-21T12:10:47.503Z,48.34
2022-11-21T12:11:47.516Z,61.07
2022-11-21T12:12:47.725Z,59.78
2022-11-21T12:13:47.930Z,54.95
2022-11-21T12:14:47.424Z,50.60
2022-11-21T12:15:47.299Z,49.63
2022-11-21T12:16:47.139Z,51.08
2022-11-21T12:17:47.770Z,49.63
2022-11-21T12:18:47.787Z,52.85
2022-11-21T12:19:47.570Z,48.02
2022-11-21T12:20:47.772Z,47.70
2022-11-21T12:21:47.052Z,47.86
2022-11-21T12:22:47.216Z,50.43
2022-11-21T12:23:47.370Z,48.50
2022-11-21T12:24:48.108Z,48.66
2022-11-21T12:25:47.399Z,49.31
2022-11-21T12:26:47.227Z,50.11
2022-11-21T12:27:47.164Z,49.15
2022-11-21T12:28:47.160Z,50.27
2022-11-21T12:29:47.227Z,49.63
2022-11-21T12:30:47.099Z,48.50
2022-11-21T12:31:47.234Z,50.60
2022-11-21T12:32:47.136Z,63.65
2022-11-21T12:33:47.057Z,54.95
2022-11-21T12:34:47.200Z,49.47
2022-11-21T12:35:47.333Z,51.08
2022-11-21T12:36:47.168Z,51.40
2022-11-21T12:37:47.303Z,48.66
2022-11-21T12:38:47.288Z,47.70
2022-11-21T12:39:48.147Z,50.11
2022-11-21T12:40:47.303Z,48.82
2022-11-21T12:41:47.300Z,48.34
2022-11-21T12:42:47.352Z,48.50
2022-11-21T12:43:47.321Z,48.18
2022-11-21T12:44:47.080Z,49.63
2022-11-21T12:45:47.183Z,50.76
2022-11-21T12:46:47.072Z,49.79
2022-11-21T12:47:47.129Z,47.70
2022-11-21T12:48:47.343Z,52.37
2022-11-21T12:49:54.210Z,49.79
2022-11-21T12:50:47.367Z,48.98
2022-11-21T12:51:47.365Z,49.63
2022-11-21T12:52:47.378Z,47.70
2022-11-21T12:53:47.388Z,49.15
2022-11-21T12:54:46.976Z,47.53
2022-11-21T12:55:48.016Z,49.95